createdAt,value
2018-12-06T00:00:58.118Z,23.29
2018-12-06T00:03:26.828Z,23.27
2018-12-06T00:05:55.411Z,23.29
2018-12-06T00:08:24.096Z,23.33
2018-12-06T00:10:52.922Z,23.32
2018-12-06T00:13:21.499Z,23.33
2018-12-06T00:15:50.267Z,23.33
2018-12-06T00:18:18.991Z,23.32
2018-12-06T00:20:47.555Z,23.32
2018-12-06T00:23:16.087Z,23.31
2018-12-06T00:25:45.343Z,23.33
2018-12-06T00:28:14.283Z,23.32
2018-12-06T00:30:44.010Z,23.36
2018-12-06T00:33:12.679Z,23.38
2018-12-06T00:35:41.359Z,23.38
2018-12-06T00:38:09.848Z,23.37
2018-12-06T00:40:38.670Z,23.36
2018-12-06T00:43:07.311Z,23.35
2018-12-06T00:45:35.754Z,23.34
2018-12-06T00:48:04.834Z,23.36
2018-12-06T00:50:33.477Z,23.36
2018-12-06T00:53:02.187Z,23.38
2018-12-06T00:55:30.865Z,23.38
2018-12-06T00:57:59.867Z,23.37
2018-12-06T01:00:28.819Z,23.37
2018-12-06T01:02:57.321Z,23.36
2018-12-06T01:05:26.247Z,23.37
2018-12-06T01:07:55.135Z,23.37
2018-12-06T01:10:24.535Z,23.38
2018-12-06T01:12:53.286Z,23.39
2018-12-06T01:15:21.905Z,23.40
2018-12-06T01:17:50.743Z,23.38
2018-12-06T01:20:19.299Z,23.38
2018-12-06T01:22:48.587Z,23.39
2018-12-06T01:25:17.275Z,23.36
2018-12-06T01:27:46.183Z,23.37
2018-12-06T01:30:14.851Z,23.37
2018-12-06T01:32:43.646Z,23.38
2018-12-06T01:35:12.102Z,23.41
2018-12-06T01:37:40.727Z,23.40
2018-12-06T01:40:09.235Z,23.38
2018-12-06T01:42:37.802Z,23.40
2018-12-06T01:45:06.731Z,23.38
2018-12-06T01:47:35.559Z,23.38
2018-12-06T01:50:04.263Z,23.37
2018-12-06T01:52:33.387Z,23.37
2018-12-06T01:55:02.116Z,23.39
2018-12-06T01:57:30.915Z,23.38
2018-12-06T01:59:59.340Z,23.41
2018-12-06T02:02:28.362Z,23.40
2018-12-06T02:04:57.095Z,23.39
2018-12-06T02:07:25.827Z,23.38
2018-12-06T02:09:54.717Z,23.39
2018-12-06T02:12:23.323Z,23.39
2018-12-06T02:14:51.863Z,23.41
2018-12-06T02:17:20.827Z,23.41
2018-12-06T02:19:49.514Z,23.40
2018-12-06T02:22:18.219Z,23.40
2018-12-06T02:24:46.995Z,23.38
2018-12-06T02:27:16.454Z,23.40
2018-12-06T02:29:50.354Z,23.39
2018-12-06T02:32:18.983Z,23.39
2018-12-06T02:34:47.639Z,23.39
2018-12-06T02:37:16.106Z,23.42
2018-12-06T02:39:44.738Z,23.41
2018-12-06T02:42:13.488Z,23.41
2018-12-06T02:44:42.332Z,23.41
2018-12-06T02:47:11.082Z,23.41
2018-12-06T02:49:39.669Z,23.39
2018-12-06T02:52:08.370Z,23.40
2018-12-06T02:54:37.004Z,23.41
2018-12-06T02:57:06.187Z,23.39
2018-12-06T02:59:34.971Z,23.43
2018-12-06T03:02:03.419Z,23.42
2018-12-06T03:04:32.111Z,23.39
2018-12-06T03:07:00.412Z,23.40
2018-12-06T03:09:29.032Z,23.41
2018-12-06T03:11:57.470Z,23.38
2018-12-06T03:14:26.086Z,23.40
2018-12-06T03:16:54.998Z,23.40
2018-12-06T03:19:23.444Z,23.40
2018-12-06T03:21:52.056Z,23.42
2018-12-06T03:24:20.623Z,23.43
2018-12-06T03:26:49.294Z,23.41
2018-12-06T03:29:17.914Z,23.39
2018-12-06T03:31:46.344Z,23.40
2018-12-06T03:34:14.899Z,23.38
2018-12-06T03:36:43.413Z,23.39
2018-12-06T03:39:12.190Z,23.40
2018-12-06T03:41:40.762Z,23.41
2018-12-06T03:44:09.447Z,23.42
2018-12-06T03:46:38.079Z,23.42
2018-12-06T03:49:06.506Z,23.43
2018-12-06T03:51:35.367Z,23.41
2018-12-06T03:54:03.887Z,23.41
2018-12-06T03:56:32.347Z,23.40
2018-12-06T03:59:01.297Z,23.40
2018-12-06T04:01:29.720Z,23.40
2018-12-06T04:03:58.157Z,23.41
2018-12-06T04:06:27.122Z,23.41
2018-12-06T04:08:55.960Z,23.40
2018-12-06T04:11:24.515Z,23.39
2018-12-06T04:13:53.331Z,23.39
2018-12-06T04:16:21.934Z,23.39
2018-12-06T04:18:50.648Z,23.38
2018-12-06T04:21:19.347Z,23.38
2018-12-06T04:23:47.787Z,23.39
2018-12-06T04:26:16.351Z,23.40
2018-12-06T04:28:45.056Z,23.38
2018-12-06T04:31:13.797Z,23.39
2018-12-06T04:33:42.246Z,23.40
2018-12-06T04:36:11.316Z,23.38
2018-12-06T04:38:40.002Z,23.36
2018-12-06T04:41:08.575Z,23.36
2018-12-06T04:43:37.123Z,23.35
2018-12-06T04:46:05.567Z,23.34
2018-12-06T04:48:34.395Z,23.38
2018-12-06T04:51:03.002Z,23.38
2018-12-06T04:53:31.623Z,23.39
2018-12-06T04:56:00.182Z,23.38
2018-12-06T04:58:29.088Z,23.37
2018-12-06T05:00:57.660Z,23.35
2018-12-06T05:03:26.224Z,23.35
2018-12-06T05:05:55.025Z,23.36
2018-12-06T05:08:23.893Z,23.38
2018-12-06T05:10:52.439Z,23.37
2018-12-06T05:13:20.983Z,23.37
2018-12-06T05:15:49.647Z,23.36
2018-12-06T05:18:18.435Z,23.34
2018-12-06T05:20:47.548Z,23.33
2018-12-06T05:23:16.192Z,23.31
2018-12-06T05:25:44.803Z,23.31
2018-12-06T05:28:13.562Z,23.33
2018-12-06T05:30:42.265Z,23.34
2018-12-06T05:33:10.806Z,23.35
2018-12-06T05:35:39.266Z,23.32
2018-12-06T05:38:07.935Z,23.32
2018-12-06T05:40:36.363Z,23.29
2018-12-06T05:43:05.047Z,23.27
2018-12-06T05:45:33.631Z,23.26
2018-12-06T05:48:02.391Z,23.29
2018-12-06T05:50:31.119Z,23.27
2018-12-06T05:52:59.567Z,23.26
2018-12-06T05:55:28.005Z,23.27
2018-12-06T05:57:56.807Z,23.26
2018-12-06T06:00:25.498Z,23.23
2018-12-06T06:02:54.263Z,23.24
2018-12-06T06:05:23.036Z,23.24
2018-12-06T06:07:51.731Z,23.25
2018-12-06T06:10:20.416Z,23.24
2018-12-06T06:12:49.168Z,23.26
2018-12-06T06:15:17.854Z,23.26
2018-12-06T06:17:47.738Z,23.24
2018-12-06T06:20:16.537Z,23.24
2018-12-06T06:22:45.214Z,23.17
2018-12-06T06:25:13.657Z,23.13
2018-12-06T06:27:42.411Z,23.10
2018-12-06T06:30:10.882Z,23.07
2018-12-06T06:32:39.438Z,23.07
2018-12-06T06:35:08.226Z,23.09
2018-12-06T06:37:37.054Z,23.07
2018-12-06T06:40:22.175Z,23.06
2018-12-06T06:42:51.182Z,23.05
2018-12-06T06:45:19.636Z,23.05
2018-12-06T06:47:49.103Z,23.03
2018-12-06T06:50:17.559Z,23.04
2018-12-06T06:52:46.263Z,23.04
2018-12-06T06:55:15.090Z,23.01
2018-12-06T06:57:43.602Z,23.00
2018-12-06T07:00:12.298Z,23.03
2018-12-06T07:02:40.852Z,23.00
2018-12-06T07:05:09.406Z,22.99
2018-12-06T07:07:38.080Z,22.98
2018-12-06T07:10:08.327Z,23.00
2018-12-06T07:12:37.325Z,23.00
2018-12-06T07:15:06.017Z,22.98
2018-12-06T07:17:34.666Z,22.96
2018-12-06T07:20:03.454Z,23.00
2018-12-06T07:22:31.998Z,22.99
2018-12-06T07:25:00.739Z,22.98
2018-12-06T07:27:29.320Z,22.97
2018-12-06T07:29:58.639Z,23.00
2018-12-06T07:32:27.998Z,22.99
2018-12-06T07:34:56.453Z,23.02
2018-12-06T07:37:27.288Z,22.99
2018-12-06T07:39:56.607Z,22.96
2018-12-06T07:42:25.338Z,22.98
2018-12-06T07:44:53.995Z,22.98
2018-12-06T07:47:23.240Z,22.96
2018-12-06T07:49:51.805Z,22.93
2018-12-06T07:52:20.235Z,22.97
2018-12-06T07:54:49.004Z,22.98
2018-12-06T07:57:17.466Z,23.00
2018-12-06T07:59:46.018Z,22.97
2018-12-06T08:02:14.654Z,22.98
2018-12-06T08:04:43.727Z,22.98
2018-12-06T08:07:12.274Z,23.00
2018-12-06T08:09:40.839Z,22.98
2018-12-06T08:12:09.794Z,22.96
2018-12-06T08:14:38.552Z,22.99
2018-12-06T08:17:07.228Z,23.01
2018-12-06T08:19:35.854Z,22.99
2018-12-06T08:22:04.527Z,22.98
2018-12-06T08:24:34.034Z,23.01
2018-12-06T08:27:02.646Z,23.11
2018-12-06T08:29:31.246Z,23.22
2018-12-06T08:31:59.847Z,23.21
2018-12-06T08:34:28.595Z,23.16
2018-12-06T08:36:57.203Z,23.16
2018-12-06T08:39:25.925Z,23.10
2018-12-06T08:41:54.520Z,23.11
2018-12-06T08:44:23.056Z,23.06
2018-12-06T08:46:51.761Z,23.06
2018-12-06T08:49:20.200Z,23.06
2018-12-06T08:51:48.690Z,23.02
2018-12-06T08:54:17.443Z,23.03
2018-12-06T08:56:46.007Z,23.02
2018-12-06T08:59:14.674Z,22.98
2018-12-06T09:01:43.210Z,22.98
2018-12-06T09:04:11.895Z,22.97
2018-12-06T09:06:40.383Z,22.96
2018-12-06T09:09:09.316Z,22.98
2018-12-06T09:11:37.756Z,23.00
2018-12-06T09:14:06.439Z,23.02
2018-12-06T09:16:35.192Z,22.99
2018-12-06T09:19:03.749Z,22.99
2018-12-06T09:21:32.195Z,22.99
2018-12-06T09:24:00.915Z,22.96
2018-12-06T09:26:29.542Z,22.98
2018-12-06T09:28:58.372Z,23.00
2018-12-06T09:31:27.100Z,23.02
2018-12-06T09:34:02.741Z,23.04
2018-12-06T09:36:31.477Z,23.07
2018-12-06T09:39:00.035Z,23.07
2018-12-06T09:41:28.743Z,23.05
2018-12-06T09:43:58.163Z,23.02
2018-12-06T09:46:28.950Z,23.04
2018-12-06T09:48:57.639Z,23.07
2018-12-06T09:51:26.128Z,23.06
2018-12-06T09:53:54.688Z,23.07
2018-12-06T09:56:23.419Z,23.09
2018-12-06T09:58:52.078Z,23.08
2018-12-06T10:01:20.541Z,23.10
2018-12-06T10:03:49.151Z,23.08
2018-12-06T10:06:17.775Z,23.07
2018-12-06T10:08:46.411Z,23.08
2018-12-06T10:11:15.050Z,23.12
2018-12-06T10:13:43.608Z,23.12
2018-12-06T10:16:12.162Z,23.11
2018-12-06T10:18:41.195Z,23.13
2018-12-06T10:21:09.847Z,23.14
2018-12-06T10:23:39.371Z,23.14
2018-12-06T10:26:08.483Z,23.13
2018-12-06T10:28:37.187Z,23.11
2018-12-06T10:31:05.623Z,23.11
2018-12-06T10:33:34.320Z,23.12
2018-12-06T10:36:02.930Z,23.12
2018-12-06T10:38:32.206Z,23.14
2018-12-06T10:41:01.030Z,23.15
2018-12-06T10:43:29.663Z,23.14
2018-12-06T10:45:58.104Z,23.14
2018-12-06T10:48:26.738Z,23.13
2018-12-06T10:51:05.151Z,23.12
2018-12-06T10:53:33.734Z,23.13
2018-12-06T10:56:02.422Z,23.15
2018-12-06T10:58:31.150Z,23.15
2018-12-06T11:01:04.847Z,23.17
2018-12-06T11:06:28.546Z,23.15
2018-12-06T11:08:57.432Z,23.12
2018-12-06T11:11:26.550Z,23.11
2018-12-06T11:13:55.540Z,23.12
2018-12-06T11:16:24.202Z,23.13
2018-12-06T11:18:53.159Z,23.13
2018-12-06T11:21:21.999Z,23.13
2018-12-06T11:23:50.774Z,23.14
2018-12-06T11:26:19.347Z,23.11
2018-12-06T11:28:48.442Z,23.13
2018-12-06T11:31:17.138Z,23.13
2018-12-06T11:33:45.579Z,23.10
2018-12-06T11:36:14.187Z,23.12
2018-12-06T11:38:43.371Z,23.14
2018-12-06T11:41:12.031Z,23.13
2018-12-06T11:43:40.719Z,23.12
2018-12-06T11:46:09.287Z,23.12
2018-12-06T11:48:38.057Z,23.12
2018-12-06T11:51:06.562Z,23.11
2018-12-06T11:53:35.112Z,23.11
2018-12-06T11:56:03.651Z,23.13
2018-12-06T11:58:32.398Z,23.13
2018-12-06T12:01:00.859Z,23.13
2018-12-06T12:03:29.458Z,23.13
2018-12-06T12:05:58.776Z,23.11
2018-12-06T12:08:27.461Z,23.10
2018-12-06T12:10:56.107Z,23.08
2018-12-06T12:13:24.715Z,23.09
2018-12-06T12:15:53.165Z,23.09
2018-12-06T12:18:21.848Z,23.11
2018-12-06T12:20:50.949Z,23.11
2018-12-06T12:23:19.377Z,23.11
2018-12-06T12:25:48.066Z,23.08
2018-12-06T12:28:17.222Z,23.09
2018-12-06T12:30:45.912Z,23.07
2018-12-06T12:33:14.475Z,23.08
2018-12-06T12:35:42.959Z,23.10
2018-12-06T12:38:11.692Z,23.11
2018-12-06T12:40:40.483Z,23.12
2018-12-06T12:43:09.199Z,23.12
2018-12-06T12:45:38.014Z,23.10
2018-12-06T12:48:06.631Z,23.10
2018-12-06T12:50:35.263Z,23.07
2018-12-06T12:53:03.839Z,23.08
2018-12-06T12:55:32.567Z,23.08
2018-12-06T12:58:01.435Z,23.09
2018-12-06T13:00:30.158Z,23.11
2018-12-06T13:02:58.603Z,23.11
2018-12-06T13:05:27.479Z,23.11
2018-12-06T13:07:56.121Z,23.08
2018-12-06T13:10:25.355Z,23.07
2018-12-06T13:12:53.943Z,23.05
2018-12-06T13:15:22.530Z,23.06
2018-12-06T13:17:51.100Z,23.08
2018-12-06T13:20:19.925Z,23.11
2018-12-06T13:22:48.599Z,23.09
2018-12-06T13:25:17.190Z,23.09
2018-12-06T13:27:45.896Z,23.08
2018-12-06T13:30:14.413Z,23.06
2018-12-06T13:32:42.883Z,23.07
2018-12-06T13:35:11.507Z,23.09
2018-12-06T13:37:40.071Z,23.10
2018-12-06T13:40:08.667Z,23.08
2018-12-06T13:42:37.391Z,23.10
2018-12-06T13:45:06.251Z,23.08
2018-12-06T13:47:34.758Z,23.09
2018-12-06T13:50:03.642Z,23.07
2018-12-06T13:52:32.131Z,23.05
2018-12-06T13:55:00.580Z,23.06
2018-12-06T13:57:29.210Z,23.08
2018-12-06T13:59:57.883Z,23.09
2018-12-06T14:02:26.563Z,23.08
2018-12-06T14:04:55.863Z,23.07
2018-12-06T14:07:25.095Z,23.07
2018-12-06T14:09:53.532Z,23.07
2018-12-06T14:12:22.179Z,23.07
2018-12-06T14:14:50.671Z,23.06
2018-12-06T14:17:19.302Z,23.08
2018-12-06T14:19:48.139Z,23.09
2018-12-06T14:22:16.707Z,23.09
2018-12-06T14:24:45.665Z,23.09
2018-12-06T14:27:14.446Z,23.09
2018-12-06T14:29:42.903Z,23.10
2018-12-06T14:32:11.395Z,23.08
2018-12-06T14:34:40.192Z,23.09
2018-12-06T14:37:08.756Z,23.10
2018-12-06T14:39:37.516Z,23.11
2018-12-06T14:42:06.082Z,23.09
2018-12-06T14:44:34.575Z,23.10
2018-12-06T14:47:03.015Z,23.07
2018-12-06T14:49:31.599Z,23.06
2018-12-06T14:52:00.074Z,23.06
2018-12-06T14:54:28.651Z,23.07
2018-12-06T14:56:57.318Z,23.07
2018-12-06T14:59:25.875Z,23.09
2018-12-06T15:01:54.562Z,23.10
2018-12-06T15:04:23.334Z,23.09
2018-12-06T15:06:52.002Z,23.08
2018-12-06T15:09:20.611Z,23.06
2018-12-06T15:11:50.040Z,23.07
2018-12-06T15:14:18.614Z,23.08
2018-12-06T15:16:47.247Z,23.06
2018-12-06T15:19:15.751Z,23.09
2018-12-06T15:21:44.467Z,23.11
2018-12-06T15:24:12.923Z,23.09
2018-12-06T15:26:41.887Z,23.08
2018-12-06T15:29:10.415Z,23.07
2018-12-06T15:31:39.110Z,23.08
2018-12-06T15:34:07.749Z,23.07
2018-12-06T15:36:36.324Z,23.09
2018-12-06T15:39:07.631Z,23.09
2018-12-06T15:41:36.381Z,23.10
2018-12-06T15:44:05.095Z,23.10
2018-12-06T15:46:33.880Z,23.09
2018-12-06T15:49:02.470Z,23.09
2018-12-06T15:51:31.048Z,23.09
2018-12-06T15:53:59.632Z,23.07
2018-12-06T15:56:28.332Z,23.06
2018-12-06T15:58:57.019Z,23.08
2018-12-06T16:01:25.691Z,23.07
2018-12-06T16:03:54.426Z,23.10
2018-12-06T16:06:23.174Z,23.09
2018-12-06T16:08:51.920Z,23.08
2018-12-06T16:11:20.363Z,23.07
2018-12-06T16:13:48.921Z,23.06
2018-12-06T16:16:17.635Z,23.05
2018-12-06T16:18:46.215Z,23.07
2018-12-06T16:21:14.649Z,23.08
2018-12-06T16:23:43.367Z,23.07
2018-12-06T16:26:11.987Z,23.08
2018-12-06T16:28:40.842Z,23.08
2018-12-06T16:31:09.587Z,23.06
2018-12-06T16:33:38.280Z,23.05
2018-12-06T16:36:06.711Z,23.06
2018-12-06T16:38:35.354Z,23.07
2018-12-06T16:41:03.775Z,23.06
2018-12-06T16:43:32.355Z,23.07
2018-12-06T16:46:01.613Z,23.06
2018-12-06T16:48:30.368Z,23.08
2018-12-06T16:50:58.971Z,23.07
2018-12-06T16:53:27.706Z,23.07
2018-12-06T16:55:56.274Z,23.07
2018-12-06T16:58:24.847Z,23.07
2018-12-06T17:00:53.344Z,23.06
2018-12-06T17:03:21.890Z,23.06
2018-12-06T17:05:50.434Z,23.05
2018-12-06T17:08:19.234Z,23.04
2018-12-06T17:10:47.812Z,23.05
2018-12-06T17:13:16.498Z,23.06
2018-12-06T17:15:45.246Z,23.06
2018-12-06T17:18:14.635Z,23.05
2018-12-06T17:20:43.313Z,23.07
2018-12-06T17:23:11.978Z,23.06
2018-12-06T17:25:40.718Z,23.05
2018-12-06T17:28:09.478Z,23.07
2018-12-06T17:30:38.183Z,23.04
2018-12-06T17:33:06.932Z,23.04
2018-12-06T17:35:35.385Z,23.03
2018-12-06T17:38:04.314Z,23.03
2018-12-06T17:40:33.007Z,23.05
2018-12-06T17:43:01.743Z,23.04
2018-12-06T17:45:30.619Z,23.01
2018-12-06T17:47:59.287Z,23.00
2018-12-06T17:50:27.902Z,23.02
2018-12-06T17:52:56.583Z,23.01
2018-12-06T17:55:25.051Z,23.02
2018-12-06T17:57:53.646Z,23.03
2018-12-06T18:00:22.433Z,23.03
2018-12-06T18:02:51.124Z,23.07
2018-12-06T18:05:19.683Z,23.06
2018-12-06T18:07:48.512Z,23.08
2018-12-06T18:10:17.179Z,23.08
2018-12-06T18:12:45.868Z,23.11
2018-12-06T18:15:14.585Z,23.11
2018-12-06T18:17:43.209Z,23.15
2018-12-06T18:20:11.647Z,23.13
2018-12-06T18:22:40.293Z,23.12
2018-12-06T18:25:09.043Z,23.13
2018-12-06T18:27:37.931Z,23.11
2018-12-06T18:30:07.862Z,23.15
2018-12-06T18:32:36.544Z,23.15
2018-12-06T18:35:05.219Z,23.16
2018-12-06T18:37:34.195Z,23.18
2018-12-06T18:40:02.762Z,23.17
2018-12-06T18:42:31.579Z,23.20
2018-12-06T18:45:00.199Z,23.20
2018-12-06T18:47:29.031Z,23.20
2018-12-06T18:49:57.470Z,23.17
2018-12-06T18:52:26.091Z,23.20
2018-12-06T18:54:54.653Z,23.21
2018-12-06T18:57:23.468Z,23.22
2018-12-06T18:59:52.219Z,23.21
2018-12-06T19:02:20.786Z,23.22
2018-12-06T19:04:49.222Z,23.22
2018-12-06T19:07:17.974Z,23.24
2018-12-06T19:09:46.631Z,23.20
2018-12-06T19:12:15.363Z,23.23
2018-12-06T19:14:44.038Z,23.21
2018-12-06T19:17:12.713Z,23.23
2018-12-06T19:19:41.271Z,23.24
2018-12-06T19:22:10.003Z,23.25
2018-12-06T19:24:38.483Z,23.27
2018-12-06T19:27:07.444Z,23.24
2018-12-06T19:29:36.206Z,23.24
2018-12-06T19:32:04.779Z,23.26
2018-12-06T19:34:33.948Z,23.24
2018-12-06T19:37:03.002Z,23.27
2018-12-06T19:39:31.591Z,23.26
2018-12-06T19:42:00.229Z,23.25
2018-12-06T19:44:29.058Z,23.21
2018-12-06T19:46:57.793Z,23.17
2018-12-06T19:49:26.379Z,23.13
2018-12-06T19:51:55.221Z,23.12
2018-12-06T19:54:23.886Z,23.12
2018-12-06T19:56:52.451Z,23.12
2018-12-06T19:59:21.047Z,23.18
2018-12-06T20:01:49.595Z,23.15
2018-12-06T20:04:18.167Z,23.13
2018-12-06T20:06:46.769Z,23.10
2018-12-06T20:09:15.339Z,23.15
2018-12-06T20:11:43.807Z,23.18
2018-12-06T20:14:12.515Z,23.19
2018-12-06T20:16:41.145Z,23.20
2018-12-06T20:19:09.773Z,23.21
2018-12-06T20:21:38.402Z,23.24
2018-12-06T20:24:06.965Z,23.24
2018-12-06T20:26:35.579Z,23.25
2018-12-06T20:29:04.567Z,23.27
2018-12-06T20:31:33.023Z,23.26
2018-12-06T20:34:01.671Z,23.25
2018-12-06T20:36:30.776Z,23.24
2018-12-06T20:38:59.436Z,23.26
2018-12-06T20:41:27.898Z,23.29
2018-12-06T20:43:56.391Z,23.26
2018-12-06T20:46:24.970Z,23.27
2018-12-06T20:48:53.639Z,23.27
2018-12-06T20:51:22.390Z,23.27
2018-12-06T20:53:50.947Z,23.28
2018-12-06T20:56:19.507Z,23.26
2018-12-06T20:58:48.471Z,23.26
2018-12-06T21:01:17.059Z,23.27
2018-12-06T21:03:45.645Z,23.25
2018-12-06T21:06:14.521Z,23.27
2018-12-06T21:08:43.147Z,23.27
2018-12-06T21:11:11.871Z,23.29
2018-12-06T21:13:40.689Z,23.27
2018-12-06T21:16:09.235Z,23.27
2018-12-06T21:18:37.946Z,23.27
2018-12-06T21:21:06.751Z,23.25
2018-12-06T21:23:35.378Z,23.26
2018-12-06T21:26:04.463Z,23.26
2018-12-06T21:28:33.374Z,23.28
2018-12-06T21:31:01.961Z,23.26
2018-12-06T21:33:30.499Z,23.25
2018-12-06T21:35:59.201Z,23.25
2018-12-06T21:38:27.969Z,23.26
2018-12-06T21:40:56.541Z,23.26
2018-12-06T21:43:25.534Z,23.26
2018-12-06T21:45:54.211Z,23.25
2018-12-06T21:48:23.717Z,23.26
2018-12-06T21:50:52.199Z,23.24
2018-12-06T21:53:20.767Z,23.23
2018-12-06T21:55:49.407Z,23.24
2018-12-06T21:58:18.278Z,23.22
2018-12-06T22:00:46.716Z,23.23
2018-12-06T22:03:15.287Z,23.18
2018-12-06T22:05:44.391Z,23.21
2018-12-06T22:08:13.004Z,23.24
2018-12-06T22:10:41.658Z,23.22
2018-12-06T22:15:52.880Z,23.19
2018-12-06T22:18:22.453Z,23.21
2018-12-06T22:20:51.177Z,23.20
2018-12-06T22:23:19.760Z,23.20
2018-12-06T22:25:48.448Z,23.20
2018-12-06T22:28:17.044Z,23.20
2018-12-06T22:30:45.995Z,23.23
2018-12-06T22:33:14.609Z,23.21
2018-12-06T22:35:43.143Z,23.21
2018-12-06T22:38:11.984Z,23.20
2018-12-06T22:40:40.931Z,23.20
2018-12-06T22:43:09.646Z,23.20
2018-12-06T22:46:00.371Z,23.20
2018-12-06T22:48:29.299Z,23.22
2018-12-06T22:50:57.965Z,23.21
2018-12-06T22:53:27.270Z,23.21
2018-12-06T22:55:55.954Z,23.19
2018-12-06T22:58:25.279Z,23.19
2018-12-06T23:00:55.769Z,23.17
2018-12-06T23:03:27.674Z,23.18
2018-12-06T23:05:56.448Z,23.20
2018-12-06T23:08:25.167Z,23.20
2018-12-06T23:10:53.878Z,23.20
2018-12-06T23:13:22.520Z,23.19
2018-12-06T23:15:51.176Z,23.19
2018-12-06T23:18:19.887Z,23.18
2018-12-06T23:20:48.643Z,23.18
2018-12-06T23:23:17.375Z,23.16
2018-12-06T23:25:46.870Z,23.18
2018-12-06T23:28:15.639Z,23.19
2018-12-06T23:30:44.262Z,23.19
2018-12-06T23:33:12.851Z,23.17
2018-12-06T23:35:41.423Z,23.15
2018-12-06T23:38:10.051Z,23.15
2018-12-06T23:40:38.508Z,23.16
2018-12-06T23:43:07.331Z,23.13
2018-12-06T23:45:36.015Z,23.16
2018-12-06T23:48:04.795Z,23.15
2018-12-06T23:50:34.189Z,23.14
2018-12-06T23:53:02.659Z,23.15
2018-12-06T23:55:31.103Z,23.15
2018-12-06T23:57:59.980Z,23.14
